sensor_id;sensor_type;location;lat;lon;timestamp;P1;durP1;ratioP1;P2;durP2;ratioP2
13568;SDS011;6856;51.460;7.158;2023-04-23T00:01:03;20.37;;;16.87;;
13568;SDS011;6856;51.460;7.158;2023-04-23T00:03:40;20.87;;;17.70;;
13568;SDS011;6856;51.460;7.158;2023-04-23T00:06:15;21.73;;;18.13;;
13568;SDS011;6856;51.460;7.158;2023-04-23T00:08:50;22.30;;;19.20;;
13568;SDS011;6856;51.460;7.158;2023-04-23T00:11:31;18.63;;;16.63;;
13568;SDS011;6856;51.460;7.158;2023-04-23T00:14:07;18.10;;;16.17;;
13568;SDS011;6856;51.460;7.158;2023-04-23T00:16:43;20.63;;;17.43;;
13568;SDS011;6856;51.460;7.158;2023-04-23T00:19:18;20.13;;;17.80;;
13568;SDS011;6856;51.460;7.158;2023-04-23T00:21:52;19.87;;;16.90;;
13568;SDS011;6856;51.460;7.158;2023-04-23T00:24:26;21.53;;;18.90;;
13568;SDS011;6856;51.460;7.158;2023-04-23T00:27:07;19.57;;;16.77;;
13568;SDS011;6856;51.460;7.158;2023-04-23T00:29:41;18.80;;;16.30;;
13568;SDS011;6856;51.460;7.158;2023-04-23T00:32:18;19.93;;;17.67;;
13568;SDS011;6856;51.460;7.158;2023-04-23T00:34:56;22.57;;;18.03;;
13568;SDS011;6856;51.460;7.158;2023-04-23T00:37:31;18.57;;;16.13;;
13568;SDS011;6856;51.460;7.158;2023-04-23T00:40:06;19.90;;;16.97;;
13568;SDS011;6856;51.460;7.158;2023-04-23T00:42:41;19.33;;;17.23;;
13568;SDS011;6856;51.460;7.158;2023-04-23T00:45:20;18.40;;;16.40;;
13568;SDS011;6856;51.460;7.158;2023-04-23T00:47:56;17.93;;;16.03;;
13568;SDS011;6856;51.460;7.158;2023-04-23T00:50:31;18.67;;;15.27;;
13568;SDS011;6856;51.460;7.158;2023-04-23T00:53:05;20.17;;;16.43;;
13568;SDS011;6856;51.460;7.158;2023-04-23T00:55:39;21.07;;;16.93;;
13568;SDS011;6856;51.460;7.158;2023-04-23T00:58:13;18.17;;;15.93;;
13568;SDS011;6856;51.460;7.158;2023-04-23T01:00:47;17.20;;;15.00;;
13568;SDS011;6856;51.460;7.158;2023-04-23T01:03:26;18.80;;;16.80;;
13568;SDS011;6856;51.460;7.158;2023-04-23T01:06:02;16.67;;;14.63;;
13568;SDS011;6856;51.460;7.158;2023-04-23T01:08:38;16.90;;;14.03;;
13568;SDS011;6856;51.460;7.158;2023-04-23T01:11:19;15.17;;;13.40;;
13568;SDS011;6856;51.460;7.158;2023-04-23T01:13:53;17.57;;;15.37;;
13568;SDS011;6856;51.460;7.158;2023-04-23T01:16:28;16.27;;;14.53;;
13568;SDS011;6856;51.460;7.158;2023-04-23T01:19:06;16.63;;;14.57;;
13568;SDS011;6856;51.460;7.158;2023-04-23T01:21:42;15.27;;;13.63;;
13568;SDS011;6856;51.460;7.158;2023-04-23T01:24:18;14.00;;;12.40;;
13568;SDS011;6856;51.460;7.158;2023-04-23T01:26:52;13.07;;;11.23;;
13568;SDS011;6856;51.460;7.158;2023-04-23T01:29:26;14.40;;;12.90;;
13568;SDS011;6856;51.460;7.158;2023-04-23T01:32:00;14.83;;;12.87;;
13568;SDS011;6856;51.460;7.158;2023-04-23T01:34:34;14.07;;;12.57;;
13568;SDS011;6856;51.460;7.158;2023-04-23T01:37:09;15.53;;;12.57;;
13568;SDS011;6856;51.460;7.158;2023-04-23T01:39:48;13.13;;;11.30;;
13568;SDS011;6856;51.460;7.158;2023-04-23T01:42:22;13.60;;;11.30;;
13568;SDS011;6856;51.460;7.158;2023-04-23T01:44:56;13.90;;;11.40;;
13568;SDS011;6856;51.460;7.158;2023-04-23T01:47:30;13.67;;;12.27;;
13568;SDS011;6856;51.460;7.158;2023-04-23T01:50:04;12.70;;;11.20;;
13568;SDS011;6856;51.460;7.158;2023-04-23T01:52:40;14.67;;;12.83;;
13568;SDS011;6856;51.460;7.158;2023-04-23T01:55:16;12.93;;;11.63;;
13568;SDS011;6856;51.460;7.158;2023-04-23T01:57:51;14.10;;;12.13;;
13568;SDS011;6856;51.460;7.158;2023-04-23T02:00:24;11.77;;;10.27;;
13568;SDS011;6856;51.460;7.158;2023-04-23T02:02:59;12.67;;;10.87;;
13568;SDS011;6856;51.460;7.158;2023-04-23T02:05:33;13.50;;;11.73;;
13568;SDS011;6856;51.460;7.158;2023-04-23T02:08:09;11.83;;;10.53;;
13568;SDS011;6856;51.460;7.158;2023-04-23T02:10:52;11.43;;;10.23;;
13568;SDS011;6856;51.460;7.158;2023-04-23T02:13:26;12.77;;;11.30;;
13568;SDS011;6856;51.460;7.158;2023-04-23T02:16:07;12.27;;;9.93;;
13568;SDS011;6856;51.460;7.158;2023-04-23T02:18:41;11.47;;;10.07;;
13568;SDS011;6856;51.460;7.158;2023-04-23T02:21:17;11.13;;;9.93;;
13568;SDS011;6856;51.460;7.158;2023-04-23T02:23:51;11.80;;;10.10;;
13568;SDS011;6856;51.460;7.158;2023-04-23T02:26:27;11.80;;;10.57;;
13568;SDS011;6856;51.460;7.158;2023-04-23T02:29:01;12.33;;;10.10;;
13568;SDS011;6856;51.460;7.158;2023-04-23T02:31:35;11.83;;;10.00;;
13568;SDS011;6856;51.460;7.158;2023-04-23T02:34:09;10.17;;;8.97;;
13568;SDS011;6856;51.460;7.158;2023-04-23T02:36:44;10.47;;;9.37;;
13568;SDS011;6856;51.460;7.158;2023-04-23T02:39:18;10.80;;;9.70;;
13568;SDS011;6856;51.460;7.158;2023-04-23T02:41:53;11.40;;;10.20;;
13568;SDS011;6856;51.460;7.158;2023-04-23T02:44:27;13.70;;;10.73;;
13568;SDS011;6856;51.460;7.158;2023-04-23T02:47:02;10.67;;;9.57;;
13568;SDS011;6856;51.460;7.158;2023-04-23T02:49:36;12.37;;;10.23;;
13568;SDS011;6856;51.460;7.158;2023-04-23T02:52:10;10.00;;;8.93;;
13568;SDS011;6856;51.460;7.158;2023-04-23T02:54:44;12.77;;;9.63;;
13568;SDS011;6856;51.460;7.158;2023-04-23T02:57:20;10.63;;;9.53;;
13568;SDS011;6856;51.460;7.158;2023-04-23T02:59:54;12.10;;;10.17;;
13568;SDS011;6856;51.460;7.158;2023-04-23T03:02:28;13.53;;;11.23;;
13568;SDS011;6856;51.460;7.158;2023-04-23T03:05:02;11.63;;;10.43;;
13568;SDS011;6856;51.460;7.158;2023-04-23T03:07:37;13.70;;;11.23;;
13568;SDS011;6856;51.460;7.158;2023-04-23T03:10:11;12.50;;;11.23;;
13568;SDS011;6856;51.460;7.158;2023-04-23T03:12:47;12.63;;;10.93;;
13568;SDS011;6856;51.460;7.158;2023-04-23T03:15:24;12.00;;;10.77;;
13568;SDS011;6856;51.460;7.158;2023-04-23T03:17:59;13.03;;;11.63;;
13568;SDS011;6856;51.460;7.158;2023-04-23T03:20:34;12.33;;;11.03;;
13568;SDS011;6856;51.460;7.158;2023-04-23T03:23:09;11.97;;;10.73;;
13568;SDS011;6856;51.460;7.158;2023-04-23T03:25:43;13.50;;;12.10;;
13568;SDS011;6856;51.460;7.158;2023-04-23T03:28:21;13.37;;;11.90;;
13568;SDS011;6856;51.460;7.158;2023-04-23T03:30:55;12.30;;;11.00;;
13568;SDS011;6856;51.460;7.158;2023-04-23T03:33:30;13.50;;;11.87;;
13568;SDS011;6856;51.460;7.158;2023-04-23T03:36:04;14.23;;;12.67;;
13568;SDS011;6856;51.460;7.158;2023-04-23T03:38:38;12.70;;;11.40;;
13568;SDS011;6856;51.460;7.158;2023-04-23T03:41:12;11.50;;;10.30;;
13568;SDS011;6856;51.460;7.158;2023-04-23T03:43:48;13.77;;;12.27;;
13568;SDS011;6856;51.460;7.158;2023-04-23T03:46:22;11.77;;;10.57;;
13568;SDS011;6856;51.460;7.158;2023-04-23T03:48:56;14.57;;;11.83;;
13568;SDS011;6856;51.460;7.158;2023-04-23T03:51:29;12.03;;;10.53;;
13568;SDS011;6856;51.460;7.158;2023-04-23T03:54:04;11.83;;;10.63;;
13568;SDS011;6856;51.460;7.158;2023-04-23T03:56:38;13.63;;;11.90;;
13568;SDS011;6856;51.460;7.158;2023-04-23T03:59:13;12.77;;;11.33;;
13568;SDS011;6856;51.460;7.158;2023-04-23T04:01:46;16.20;;;10.73;;
13568;SDS011;6856;51.460;7.158;2023-04-23T04:04:20;11.47;;;10.30;;
13568;SDS011;6856;51.460;7.158;2023-04-23T04:06:55;10.73;;;9.63;;
13568;SDS011;6856;51.460;7.158;2023-04-23T04:09:32;12.30;;;11.00;;
13568;SDS011;6856;51.460;7.158;2023-04-23T04:12:13;12.27;;;10.97;;
13568;SDS011;6856;51.460;7.158;2023-04-23T04:14:49;12.27;;;11.03;;
13568;SDS011;6856;51.460;7.158;2023-04-23T04:17:23;12.83;;;11.10;;
13568;SDS011;6856;51.460;7.158;2023-04-23T04:20:02;13.13;;;11.10;;
13568;SDS011;6856;51.460;7.158;2023-04-23T04:22:38;12.97;;;10.80;;
13568;SDS011;6856;51.460;7.158;2023-04-23T04:25:12;12.17;;;9.33;;
13568;SDS011;6856;51.460;7.158;2023-04-23T04:27:46;12.40;;;10.73;;
13568;SDS011;6856;51.460;7.158;2023-04-23T04:30:22;11.67;;;10.47;;
13568;SDS011;6856;51.460;7.158;2023-04-23T04:32:57;11.60;;;10.40;;
13568;SDS011;6856;51.460;7.158;2023-04-23T04:35:34;11.17;;;9.97;;
13568;SDS011;6856;51.460;7.158;2023-04-23T04:38:08;12.37;;;10.93;;
13568;SDS011;6856;51.460;7.158;2023-04-23T04:40:45;12.17;;;10.87;;
13568;SDS011;6856;51.460;7.158;2023-04-23T04:43:19;12.27;;;10.97;;
13568;SDS011;6856;51.460;7.158;2023-04-23T04:45:58;11.03;;;9.93;;
13568;SDS011;6856;51.460;7.158;2023-04-23T04:48:32;11.70;;;10.50;;
13568;SDS011;6856;51.460;7.158;2023-04-23T04:51:07;11.10;;;9.90;;
13568;SDS011;6856;51.460;7.158;2023-04-23T04:53:40;11.40;;;10.07;;
13568;SDS011;6856;51.460;7.158;2023-04-23T04:56:14;10.27;;;9.17;;
13568;SDS011;6856;51.460;7.158;2023-04-23T04:58:48;12.10;;;10.87;;
13568;SDS011;6856;51.460;7.158;2023-04-23T05:01:25;10.60;;;9.33;;
13568;SDS011;6856;51.460;7.158;2023-04-23T05:04:00;10.77;;;9.57;;
13568;SDS011;6856;51.460;7.158;2023-04-23T05:06:34;11.63;;;9.70;;
13568;SDS011;6856;51.460;7.158;2023-04-23T05:09:08;10.83;;;9.67;;
13568;SDS011;6856;51.460;7.158;2023-04-23T05:11:42;9.93;;;8.93;;
13568;SDS011;6856;51.460;7.158;2023-04-23T05:14:16;9.63;;;8.63;;
13568;SDS011;6856;51.460;7.158;2023-04-23T05:16:54;10.77;;;9.40;;
13568;SDS011;6856;51.460;7.158;2023-04-23T05:19:29;10.67;;;9.33;;
13568;SDS011;6856;51.460;7.158;2023-04-23T05:22:03;10.17;;;9.03;;
13568;SDS011;6856;51.460;7.158;2023-04-23T05:24:37;11.13;;;9.87;;
13568;SDS011;6856;51.460;7.158;2023-04-23T05:27:11;9.40;;;8.37;;
13568;SDS011;6856;51.460;7.158;2023-04-23T05:29:45;9.77;;;8.77;;
13568;SDS011;6856;51.460;7.158;2023-04-23T05:32:20;10.03;;;9.00;;
13568;SDS011;6856;51.460;7.158;2023-04-23T05:34:57;10.13;;;9.13;;
13568;SDS011;6856;51.460;7.158;2023-04-23T05:37:32;10.03;;;8.90;;
13568;SDS011;6856;51.460;7.158;2023-04-23T05:40:07;10.27;;;9.13;;
13568;SDS011;6856;51.460;7.158;2023-04-23T05:42:42;10.70;;;9.60;;
13568;SDS011;6856;51.460;7.158;2023-04-23T05:45:15;10.40;;;9.33;;
13568;SDS011;6856;51.460;7.158;2023-04-23T05:47:51;9.70;;;8.70;;
13568;SDS011;6856;51.460;7.158;2023-04-23T05:50:27;10.90;;;8.53;;
13568;SDS011;6856;51.460;7.158;2023-04-23T05:53:01;9.20;;;8.20;;
13568;SDS011;6856;51.460;7.158;2023-04-23T05:55:35;8.80;;;7.90;;
13568;SDS011;6856;51.460;7.158;2023-04-23T05:58:09;10.17;;;8.00;;
13568;SDS011;6856;51.460;7.158;2023-04-23T06:00:42;8.30;;;7.47;;
13568;SDS011;6856;51.460;7.158;2023-04-23T06:03:17;9.73;;;8.03;;
13568;SDS011;6856;51.460;7.158;2023-04-23T06:05:51;10.73;;;8.43;;
13568;SDS011;6856;51.460;7.158;2023-04-23T06:08:26;8.60;;;7.13;;
13568;SDS011;6856;51.460;7.158;2023-04-23T06:11:03;7.97;;;6.80;;
13568;SDS011;6856;51.460;7.158;2023-04-23T06:13:37;8.27;;;7.13;;
13568;SDS011;6856;51.460;7.158;2023-04-23T06:16:15;8.17;;;7.37;;
13568;SDS011;6856;51.460;7.158;2023-04-23T06:18:50;8.20;;;7.40;;
13568;SDS011;6856;51.460;7.158;2023-04-23T06:21:34;8.60;;;6.87;;
13568;SDS011;6856;51.460;7.158;2023-04-23T06:24:07;8.17;;;7.03;;
13568;SDS011;6856;51.460;7.158;2023-04-23T06:26:41;7.53;;;6.77;;
13568;SDS011;6856;51.460;7.158;2023-04-23T06:29:16;7.60;;;6.90;;
13568;SDS011;6856;51.460;7.158;2023-04-23T06:31:53;7.83;;;6.50;;
13568;SDS011;6856;51.460;7.158;2023-04-23T06:34:30;10.23;;;6.53;;
13568;SDS011;6856;51.460;7.158;2023-04-23T06:37:04;7.03;;;6.33;;
13568;SDS011;6856;51.460;7.158;2023-04-23T06:39:38;6.67;;;5.97;;
13568;SDS011;6856;51.460;7.158;2023-04-23T06:42:15;7.37;;;5.97;;
13568;SDS011;6856;51.460;7.158;2023-04-23T06:44:49;7.13;;;6.23;;
13568;SDS011;6856;51.460;7.158;2023-04-23T06:47:23;6.30;;;5.67;;
13568;SDS011;6856;51.460;7.158;2023-04-23T06:50:01;7.47;;;6.30;;
13568;SDS011;6856;51.460;7.158;2023-04-23T06:52:36;7.40;;;6.37;;
13568;SDS011;6856;51.460;7.158;2023-04-23T06:55:12;7.20;;;6.30;;
13568;SDS011;6856;51.460;7.158;2023-04-23T06:57:47;6.53;;;5.47;;
13568;SDS011;6856;51.460;7.158;2023-04-23T07:00:21;6.40;;;5.47;;
13568;SDS011;6856;51.460;7.158;2023-04-23T07:02:55;6.30;;;5.60;;
13568;SDS011;6856;51.460;7.158;2023-04-23T07:05:31;6.67;;;5.80;;
13568;SDS011;6856;51.460;7.158;2023-04-23T07:08:05;6.03;;;5.30;;
13568;SDS011;6856;51.460;7.158;2023-04-23T07:10:39;6.27;;;5.30;;
13568;SDS011;6856;51.460;7.158;2023-04-23T07:13:12;6.00;;;5.07;;
13568;SDS011;6856;51.460;7.158;2023-04-23T07:15:48;5.90;;;5.23;;
13568;SDS011;6856;51.460;7.158;2023-04-23T07:18:21;6.57;;;5.27;;
13568;SDS011;6856;51.460;7.158;2023-04-23T07:20:56;6.17;;;5.13;;
13568;SDS011;6856;51.460;7.158;2023-04-23T07:23:30;5.10;;;4.07;;
13568;SDS011;6856;51.460;7.158;2023-04-23T07:26:04;5.33;;;4.20;;
13568;SDS011;6856;51.460;7.158;2023-04-23T07:28:38;5.77;;;4.47;;
13568;SDS011;6856;51.460;7.158;2023-04-23T07:31:21;4.60;;;3.90;;
13568;SDS011;6856;51.460;7.158;2023-04-23T07:33:55;5.20;;;4.10;;
13568;SDS011;6856;51.460;7.158;2023-04-23T07:36:30;5.10;;;4.47;;
13568;SDS011;6856;51.460;7.158;2023-04-23T07:39:09;4.97;;;3.90;;
13568;SDS011;6856;51.460;7.158;2023-04-23T07:41:43;6.80;;;3.87;;
13568;SDS011;6856;51.460;7.158;2023-04-23T07:44:16;8.10;;;4.10;;
13568;SDS011;6856;51.460;7.158;2023-04-23T07:46:51;5.73;;;4.43;;
13568;SDS011;6856;51.460;7.158;2023-04-23T07:49:24;5.47;;;4.30;;
13568;SDS011;6856;51.460;7.158;2023-04-23T07:52:00;5.83;;;4.03;;
13568;SDS011;6856;51.460;7.158;2023-04-23T07:54:34;4.50;;;3.67;;
13568;SDS011;6856;51.460;7.158;2023-04-23T07:57:13;4.43;;;3.63;;
13568;SDS011;6856;51.460;7.158;2023-04-23T07:59:47;4.03;;;3.43;;
13568;SDS011;6856;51.460;7.158;2023-04-23T08:02:21;4.77;;;3.53;;
13568;SDS011;6856;51.460;7.158;2023-04-23T08:04:57;4.43;;;3.57;;
13568;SDS011;6856;51.460;7.158;2023-04-23T08:07:33;5.50;;;3.27;;
13568;SDS011;6856;51.460;7.158;2023-04-23T08:10:07;4.67;;;3.00;;
13568;SDS011;6856;51.460;7.158;2023-04-23T08:12:41;5.73;;;3.10;;
13568;SDS011;6856;51.460;7.158;2023-04-23T08:15:16;4.80;;;3.03;;
13568;SDS011;6856;51.460;7.158;2023-04-23T08:17:50;4.50;;;2.67;;
13568;SDS011;6856;51.460;7.158;2023-04-23T08:20:26;4.93;;;2.60;;
13568;SDS011;6856;51.460;7.158;2023-04-23T08:23:12;4.00;;;2.60;;
13568;SDS011;6856;51.460;7.158;2023-04-23T08:25:46;4.10;;;2.60;;
13568;SDS011;6856;51.460;7.158;2023-04-23T08:28:20;5.07;;;2.73;;
13568;SDS011;6856;51.460;7.158;2023-04-23T08:30:54;4.13;;;2.73;;
13568;SDS011;6856;51.460;7.158;2023-04-23T08:33:28;4.70;;;2.53;;
13568;SDS011;6856;51.460;7.158;2023-04-23T08:36:03;2.90;;;2.20;;
13568;SDS011;6856;51.460;7.158;2023-04-23T08:38:39;5.00;;;2.50;;
13568;SDS011;6856;51.460;7.158;2023-04-23T08:41:14;3.70;;;2.30;;
13568;SDS011;6856;51.460;7.158;2023-04-23T08:44:00;3.50;;;2.23;;
13568;SDS011;6856;51.460;7.158;2023-04-23T08:46:45;2.77;;;2.00;;
13568;SDS011;6856;51.460;7.158;2023-04-23T08:49:20;3.20;;;1.93;;
13568;SDS011;6856;51.460;7.158;2023-04-23T08:51:57;3.50;;;2.40;;
13568;SDS011;6856;51.460;7.158;2023-04-23T08:54:43;3.23;;;1.60;;
13568;SDS011;6856;51.460;7.158;2023-04-23T08:57:21;5.23;;;2.33;;
13568;SDS011;6856;51.460;7.158;2023-04-23T08:59:57;3.23;;;2.00;;
13568;SDS011;6856;51.460;7.158;2023-04-23T09:02:36;3.47;;;2.20;;
13568;SDS011;6856;51.460;7.158;2023-04-23T09:05:15;3.83;;;1.83;;
13568;SDS011;6856;51.460;7.158;2023-04-23T09:07:49;3.80;;;2.17;;
13568;SDS011;6856;51.460;7.158;2023-04-23T09:10:27;5.10;;;2.43;;
13568;SDS011;6856;51.460;7.158;2023-04-23T09:13:01;3.07;;;2.00;;
13568;SDS011;6856;51.460;7.158;2023-04-23T09:15:35;2.87;;;2.10;;
13568;SDS011;6856;51.460;7.158;2023-04-23T09:18:14;3.23;;;2.37;;
13568;SDS011;6856;51.460;7.158;2023-04-23T09:20:49;3.07;;;2.30;;
13568;SDS011;6856;51.460;7.158;2023-04-23T09:23:23;3.10;;;2.17;;
13568;SDS011;6856;51.460;7.158;2023-04-23T09:25:58;4.03;;;2.00;;
13568;SDS011;6856;51.460;7.158;2023-04-23T09:28:34;2.50;;;1.80;;
13568;SDS011;6856;51.460;7.158;2023-04-23T09:31:09;4.47;;;2.03;;
13568;SDS011;6856;51.460;7.158;2023-04-23T09:33:47;3.23;;;2.03;;
13568;SDS011;6856;51.460;7.158;2023-04-23T09:36:25;3.77;;;1.90;;
13568;SDS011;6856;51.460;7.158;2023-04-23T09:38:59;4.27;;;2.03;;
13568;SDS011;6856;51.460;7.158;2023-04-23T09:41:34;3.33;;;1.83;;
13568;SDS011;6856;51.460;7.158;2023-04-23T09:44:18;2.03;;;1.67;;
13568;SDS011;6856;51.460;7.158;2023-04-23T09:46:54;2.33;;;1.70;;
13568;SDS011;6856;51.460;7.158;2023-04-23T09:49:44;2.60;;;1.83;;
13568;SDS011;6856;51.460;7.158;2023-04-23T09:52:19;5.50;;;2.10;;
13568;SDS011;6856;51.460;7.158;2023-04-23T09:54:55;4.17;;;1.50;;
13568;SDS011;6856;51.460;7.158;2023-04-23T09:57:32;2.67;;;1.80;;
13568;SDS011;6856;51.460;7.158;2023-04-23T10:00:12;3.10;;;1.77;;
13568;SDS011;6856;51.460;7.158;2023-04-23T10:02:50;2.60;;;1.50;;
13568;SDS011;6856;51.460;7.158;2023-04-23T10:05:26;3.00;;;1.67;;
13568;SDS011;6856;51.460;7.158;2023-04-23T10:08:20;2.67;;;1.60;;
13568;SDS011;6856;51.460;7.158;2023-04-23T10:10:54;2.67;;;1.53;;
13568;SDS011;6856;51.460;7.158;2023-04-23T10:13:52;2.73;;;1.77;;
13568;SDS011;6856;51.460;7.158;2023-04-23T10:16:27;2.83;;;1.70;;
13568;SDS011;6856;51.460;7.158;2023-04-23T10:19:20;1.63;;;1.33;;
13568;SDS011;6856;51.460;7.158;2023-04-23T10:21:56;3.03;;;1.60;;
13568;SDS011;6856;51.460;7.158;2023-04-23T10:24:51;2.77;;;1.73;;
13568;SDS011;6856;51.460;7.158;2023-04-23T10:27:30;1.83;;;1.40;;
13568;SDS011;6856;51.460;7.158;2023-04-23T10:30:27;2.87;;;1.50;;
13568;SDS011;6856;51.460;7.158;2023-04-23T10:33:02;1.83;;;1.30;;
13568;SDS011;6856;51.460;7.158;2023-04-23T10:35:53;2.60;;;1.57;;
13568;SDS011;6856;51.460;7.158;2023-04-23T10:38:29;2.70;;;1.40;;
13568;SDS011;6856;51.460;7.158;2023-04-23T10:41:03;2.23;;;1.40;;
13568;SDS011;6856;51.460;7.158;2023-04-23T10:43:39;2.30;;;1.50;;
13568;SDS011;6856;51.460;7.158;2023-04-23T10:46:30;1.67;;;1.23;;
13568;SDS011;6856;51.460;7.158;2023-04-23T10:49:10;3.00;;;1.53;;
13568;SDS011;6856;51.460;7.158;2023-04-23T10:51:47;4.07;;;1.47;;
13568;SDS011;6856;51.460;7.158;2023-04-23T10:54:27;3.73;;;1.60;;
13568;SDS011;6856;51.460;7.158;2023-04-23T10:57:03;2.20;;;1.57;;
13568;SDS011;6856;51.460;7.158;2023-04-23T10:59:39;3.27;;;1.40;;
13568;SDS011;6856;51.460;7.158;2023-04-23T11:02:41;2.23;;;1.40;;
13568;SDS011;6856;51.460;7.158;2023-04-23T11:05:17;2.40;;;1.40;;
13568;SDS011;6856;51.460;7.158;2023-04-23T11:08:03;2.00;;;1.50;;
13568;SDS011;6856;51.460;7.158;2023-04-23T11:10:53;2.00;;;1.27;;
13568;SDS011;6856;51.460;7.158;2023-04-23T11:13:29;1.67;;;1.27;;
13568;SDS011;6856;51.460;7.158;2023-04-23T11:19:00;2.83;;;1.30;;
13568;SDS011;6856;51.460;7.158;2023-04-23T11:21:56;3.17;;;1.30;;
13568;SDS011;6856;51.460;7.158;2023-04-23T11:24:33;2.50;;;1.13;;
13568;SDS011;6856;51.460;7.158;2023-04-23T11:27:13;2.70;;;1.30;;
13568;SDS011;6856;51.460;7.158;2023-04-23T11:29:51;1.13;;;1.03;;
13568;SDS011;6856;51.460;7.158;2023-04-23T11:32:26;2.67;;;1.23;;
13568;SDS011;6856;51.460;7.158;2023-04-23T11:35:03;1.90;;;1.50;;
13568;SDS011;6856;51.460;7.158;2023-04-23T11:37:44;2.80;;;1.60;;
13568;SDS011;6856;51.460;7.158;2023-04-23T11:40:20;2.53;;;1.60;;
13568;SDS011;6856;51.460;7.158;2023-04-23T11:42:55;3.43;;;1.30;;
13568;SDS011;6856;51.460;7.158;2023-04-23T11:45:29;2.40;;;1.10;;
13568;SDS011;6856;51.460;7.158;2023-04-23T11:48:05;1.57;;;0.97;;
13568;SDS011;6856;51.460;7.158;2023-04-23T11:50:40;0.80;;;0.80;;
13568;SDS011;6856;51.460;7.158;2023-04-23T11:53:14;1.70;;;0.93;;
13568;SDS011;6856;51.460;7.158;2023-04-23T11:55:48;1.00;;;0.90;;
13568;SDS011;6856;51.460;7.158;2023-04-23T11:58:25;1.97;;;0.90;;
13568;SDS011;6856;51.460;7.158;2023-04-23T12:01:01;1.70;;;1.00;;
13568;SDS011;6856;51.460;7.158;2023-04-23T12:03:36;2.07;;;0.90;;
13568;SDS011;6856;51.460;7.158;2023-04-23T12:06:11;2.97;;;1.13;;
13568;SDS011;6856;51.460;7.158;2023-04-23T12:08:48;1.80;;;1.00;;
13568;SDS011;6856;51.460;7.158;2023-04-23T12:11:23;2.13;;;1.10;;
13568;SDS011;6856;51.460;7.158;2023-04-23T12:13:57;1.73;;;0.83;;
13568;SDS011;6856;51.460;7.158;2023-04-23T12:16:34;2.03;;;0.80;;
13568;SDS011;6856;51.460;7.158;2023-04-23T12:19:12;2.33;;;1.03;;
13568;SDS011;6856;51.460;7.158;2023-04-23T12:21:51;1.27;;;1.03;;
13568;SDS011;6856;51.460;7.158;2023-04-23T12:24:27;2.70;;;1.20;;
13568;SDS011;6856;51.460;7.158;2023-04-23T12:27:17;1.57;;;0.93;;
13568;SDS011;6856;51.460;7.158;2023-04-23T12:29:58;1.90;;;1.20;;
13568;SDS011;6856;51.460;7.158;2023-04-23T12:32:35;0.83;;;0.70;;
13568;SDS011;6856;51.460;7.158;2023-04-23T12:35:13;1.37;;;0.80;;
13568;SDS011;6856;51.460;7.158;2023-04-23T12:37:48;1.30;;;0.70;;
13568;SDS011;6856;51.460;7.158;2023-04-23T12:40:22;1.47;;;0.80;;
13568;SDS011;6856;51.460;7.158;2023-04-23T12:42:56;1.30;;;0.77;;
13568;SDS011;6856;51.460;7.158;2023-04-23T12:45:35;0.97;;;0.80;;
13568;SDS011;6856;51.460;7.158;2023-04-23T12:48:10;3.45;;;1.02;;
13568;SDS011;6856;51.460;7.158;2023-04-23T12:50:44;1.17;;;0.68;;
13568;SDS011;6856;51.460;7.158;2023-04-23T12:53:20;1.90;;;0.73;;
13568;SDS011;6856;51.460;7.158;2023-04-23T12:55:54;0.87;;;0.67;;
13568;SDS011;6856;51.460;7.158;2023-04-23T12:58:28;2.17;;;0.85;;
13568;SDS011;6856;51.460;7.158;2023-04-23T13:01:02;1.05;;;0.70;;
13568;SDS011;6856;51.460;7.158;2023-04-23T13:03:57;2.03;;;1.00;;
13568;SDS011;6856;51.460;7.158;2023-04-23T13:06:33;2.00;;;0.75;;
13568;SDS011;6856;51.460;7.158;2023-04-23T13:09:09;1.20;;;0.80;;
13568;SDS011;6856;51.460;7.158;2023-04-23T13:11:43;1.60;;;0.75;;
13568;SDS011;6856;51.460;7.158;2023-04-23T13:14:21;2.00;;;1.10;;
13568;SDS011;6856;51.460;7.158;2023-04-23T13:16:55;1.83;;;0.80;;
13568;SDS011;6856;51.460;7.158;2023-04-23T13:19:29;3.70;;;0.70;;
13568;SDS011;6856;51.460;7.158;2023-04-23T13:22:04;1.55;;;1.00;;
13568;SDS011;6856;51.460;7.158;2023-04-23T13:24:42;1.30;;;0.60;;
13568;SDS011;6856;51.460;7.158;2023-04-23T13:27:16;0.52;;;0.50;;
13568;SDS011;6856;51.460;7.158;2023-04-23T13:29:49;1.60;;;0.82;;
13568;SDS011;6856;51.460;7.158;2023-04-23T13:32:23;2.08;;;1.05;;
13568;SDS011;6856;51.460;7.158;2023-04-23T13:35:02;1.63;;;0.80;;
13568;SDS011;6856;51.460;7.158;2023-04-23T13:37:37;1.45;;;0.80;;
13568;SDS011;6856;51.460;7.158;2023-04-23T13:40:13;1.10;;;1.00;;
13568;SDS011;6856;51.460;7.158;2023-04-23T13:42:47;1.23;;;0.70;;
13568;SDS011;6856;51.460;7.158;2023-04-23T13:45:21;1.00;;;0.70;;
13568;SDS011;6856;51.460;7.158;2023-04-23T13:47:55;1.73;;;0.68;;
13568;SDS011;6856;51.460;7.158;2023-04-23T13:50:29;0.80;;;0.60;;
13568;SDS011;6856;51.460;7.158;2023-04-23T13:53:03;0.50;;;0.50;;
13568;SDS011;6856;51.460;7.158;2023-04-23T13:55:38;1.48;;;0.80;;
13568;SDS011;6856;51.460;7.158;2023-04-23T13:58:12;2.15;;;0.85;;
13568;SDS011;6856;51.460;7.158;2023-04-23T14:00:46;2.40;;;0.90;;
13568;SDS011;6856;51.460;7.158;2023-04-23T14:03:21;2.08;;;0.95;;
13568;SDS011;6856;51.460;7.158;2023-04-23T14:05:55;1.42;;;0.80;;
13568;SDS011;6856;51.460;7.158;2023-04-23T14:08:36;1.35;;;0.60;;
13568;SDS011;6856;51.460;7.158;2023-04-23T14:11:13;2.20;;;0.93;;
13568;SDS011;6856;51.460;7.158;2023-04-23T14:13:46;0.85;;;0.60;;
13568;SDS011;6856;51.460;7.158;2023-04-23T14:16:23;1.48;;;0.70;;
13568;SDS011;6856;51.460;7.158;2023-04-23T14:18:57;0.65;;;0.60;;
13568;SDS011;6856;51.460;7.158;2023-04-23T14:21:35;0.82;;;0.70;;
13568;SDS011;6856;51.460;7.158;2023-04-23T14:24:15;1.73;;;0.70;;
13568;SDS011;6856;51.460;7.158;2023-04-23T14:26:55;1.05;;;0.75;;
13568;SDS011;6856;51.460;7.158;2023-04-23T14:29:33;2.15;;;0.80;;
13568;SDS011;6856;51.460;7.158;2023-04-23T14:32:12;2.00;;;0.90;;
13568;SDS011;6856;51.460;7.158;2023-04-23T14:34:46;1.98;;;0.90;;
13568;SDS011;6856;51.460;7.158;2023-04-23T14:37:20;1.13;;;0.70;;
13568;SDS011;6856;51.460;7.158;2023-04-23T14:39:56;1.45;;;0.70;;
13568;SDS011;6856;51.460;7.158;2023-04-23T14:42:32;2.65;;;0.70;;
13568;SDS011;6856;51.460;7.158;2023-04-23T14:45:06;1.83;;;0.80;;
13568;SDS011;6856;51.460;7.158;2023-04-23T14:47:41;1.70;;;0.60;;
13568;SDS011;6856;51.460;7.158;2023-04-23T14:50:18;0.50;;;0.50;;
13568;SDS011;6856;51.460;7.158;2023-04-23T14:52:52;1.73;;;0.60;;
13568;SDS011;6856;51.460;7.158;2023-04-23T14:55:26;1.77;;;0.68;;
13568;SDS011;6856;51.460;7.158;2023-04-23T14:58:03;1.33;;;0.80;;
13568;SDS011;6856;51.460;7.158;2023-04-23T15:00:37;3.60;;;1.00;;
13568;SDS011;6856;51.460;7.158;2023-04-23T15:03:20;2.50;;;0.70;;
13568;SDS011;6856;51.460;7.158;2023-04-23T15:05:54;2.00;;;0.80;;
13568;SDS011;6856;51.460;7.158;2023-04-23T15:08:28;1.13;;;0.57;;
13568;SDS011;6856;51.460;7.158;2023-04-23T15:11:03;0.73;;;0.50;;
13568;SDS011;6856;51.460;7.158;2023-04-23T15:13:54;2.10;;;0.70;;
13568;SDS011;6856;51.460;7.158;2023-04-23T15:16:38;2.23;;;0.90;;
13568;SDS011;6856;51.460;7.158;2023-04-23T15:19:19;1.87;;;0.77;;
13568;SDS011;6856;51.460;7.158;2023-04-23T15:21:56;0.90;;;0.70;;
13568;SDS011;6856;51.460;7.158;2023-04-23T15:24:30;1.53;;;0.70;;
13568;SDS011;6856;51.460;7.158;2023-04-23T15:27:04;1.87;;;0.93;;
13568;SDS011;6856;51.460;7.158;2023-04-23T15:29:40;1.77;;;0.70;;
13568;SDS011;6856;51.460;7.158;2023-04-23T15:32:14;1.70;;;0.97;;
13568;SDS011;6856;51.460;7.158;2023-04-23T15:34:55;1.13;;;0.70;;
13568;SDS011;6856;51.460;7.158;2023-04-23T15:37:30;1.00;;;0.70;;
13568;SDS011;6856;51.460;7.158;2023-04-23T15:40:05;1.60;;;0.70;;
13568;SDS011;6856;51.460;7.158;2023-04-23T15:42:44;1.03;;;0.80;;
13568;SDS011;6856;51.460;7.158;2023-04-23T15:45:19;1.07;;;0.60;;
13568;SDS011;6856;51.460;7.158;2023-04-23T15:47:53;0.93;;;0.60;;
13568;SDS011;6856;51.460;7.158;2023-04-23T15:50:27;0.80;;;0.60;;